sensor_id;sensor_type;location;lat;lon;timestamp;P1;durP1;ratioP1;P2;durP2;ratioP2
12511;SDS011;6321;53.798;10.382;2023-05-02T00:00:14;22.03;;;11.43;;
12511;SDS011;6321;53.798;10.382;2023-05-02T00:02:40;16.53;;;11.70;;
12511;SDS011;6321;53.798;10.382;2023-05-02T00:05:06;25.07;;;15.47;;
12511;SDS011;6321;53.798;10.382;2023-05-02T00:07:32;22.03;;;15.47;;
12511;SDS011;6321;53.798;10.382;2023-05-02T00:09:58;26.47;;;17.33;;
12511;SDS011;6321;53.798;10.382;2023-05-02T00:12:26;26.53;;;18.33;;
12511;SDS011;6321;53.798;10.382;2023-05-02T00:14:52;31.83;;;18.97;;
12511;SDS011;6321;53.798;10.382;2023-05-02T00:17:18;28.90;;;18.47;;
12511;SDS011;6321;53.798;10.382;2023-05-02T00:19:45;29.87;;;19.90;;
12511;SDS011;6321;53.798;10.382;2023-05-02T00:22:11;30.03;;;19.83;;
12511;SDS011;6321;53.798;10.382;2023-05-02T00:24:37;29.23;;;20.23;;
12511;SDS011;6321;53.798;10.382;2023-05-02T00:27:03;30.13;;;20.53;;
12511;SDS011;6321;53.798;10.382;2023-05-02T00:29:30;28.87;;;20.33;;
12511;SDS011;6321;53.798;10.382;2023-05-02T00:31:56;32.13;;;21.40;;
12511;SDS011;6321;53.798;10.382;2023-05-02T00:34:22;32.03;;;21.23;;
12511;SDS011;6321;53.798;10.382;2023-05-02T00:36:48;31.73;;;20.37;;
12511;SDS011;6321;53.798;10.382;2023-05-02T00:39:14;32.50;;;22.30;;
12511;SDS011;6321;53.798;10.382;2023-05-02T00:41:41;29.73;;;19.93;;
12511;SDS011;6321;53.798;10.382;2023-05-02T00:44:07;32.20;;;20.97;;
12511;SDS011;6321;53.798;10.382;2023-05-02T00:46:33;31.20;;;21.37;;
12511;SDS011;6321;53.798;10.382;2023-05-02T00:48:59;33.97;;;22.13;;
12511;SDS011;6321;53.798;10.382;2023-05-02T00:51:26;33.20;;;21.43;;
12511;SDS011;6321;53.798;10.382;2023-05-02T00:53:52;31.57;;;22.20;;
12511;SDS011;6321;53.798;10.382;2023-05-02T00:56:18;35.60;;;22.30;;
12511;SDS011;6321;53.798;10.382;2023-05-02T00:58:45;32.23;;;22.23;;
12511;SDS011;6321;53.798;10.382;2023-05-02T01:06:45;33.03;;;22.70;;
12511;SDS011;6321;53.798;10.382;2023-05-02T01:09:21;33.37;;;22.63;;
12511;SDS011;6321;53.798;10.382;2023-05-02T01:11:54;36.43;;;23.50;;
12511;SDS011;6321;53.798;10.382;2023-05-02T01:14:21;34.47;;;24.07;;
12511;SDS011;6321;53.798;10.382;2023-05-02T01:16:48;37.73;;;24.47;;
12511;SDS011;6321;53.798;10.382;2023-05-02T01:19:25;34.27;;;23.23;;
12511;SDS011;6321;53.798;10.382;2023-05-02T01:21:54;38.77;;;26.40;;
12511;SDS011;6321;53.798;10.382;2023-05-02T01:24:24;40.13;;;26.70;;
12511;SDS011;6321;53.798;10.382;2023-05-02T01:27:38;41.50;;;28.13;;
12511;SDS011;6321;53.798;10.382;2023-05-02T01:29:36;48.63;;;31.33;;
12511;SDS011;6321;53.798;10.382;2023-05-02T01:32:03;48.50;;;32.33;;
12511;SDS011;6321;53.798;10.382;2023-05-02T01:34:31;47.00;;;30.90;;
12511;SDS011;6321;53.798;10.382;2023-05-02T01:36:58;55.20;;;34.70;;
12511;SDS011;6321;53.798;10.382;2023-05-02T01:39:25;50.90;;;35.30;;
12511;SDS011;6321;53.798;10.382;2023-05-02T01:41:53;54.80;;;36.83;;
12511;SDS011;6321;53.798;10.382;2023-05-02T01:44:21;51.10;;;35.47;;
12511;SDS011;6321;53.798;10.382;2023-05-02T01:46:47;55.20;;;36.37;;
12511;SDS011;6321;53.798;10.382;2023-05-02T01:49:14;54.83;;;36.00;;
12511;SDS011;6321;53.798;10.382;2023-05-02T01:51:44;55.90;;;34.43;;
12511;SDS011;6321;53.798;10.382;2023-05-02T01:54:11;47.23;;;32.73;;
12511;SDS011;6321;53.798;10.382;2023-05-02T01:56:38;49.17;;;31.70;;
12511;SDS011;6321;53.798;10.382;2023-05-02T01:59:05;44.40;;;27.53;;
12511;SDS011;6321;53.798;10.382;2023-05-02T02:01:33;40.97;;;28.53;;
12511;SDS011;6321;53.798;10.382;2023-05-02T02:03:59;35.10;;;25.33;;
12511;SDS011;6321;53.798;10.382;2023-05-02T02:06:26;36.13;;;23.80;;
12511;SDS011;6321;53.798;10.382;2023-05-02T02:08:52;29.57;;;20.53;;
12511;SDS011;6321;53.798;10.382;2023-05-02T02:11:25;28.93;;;21.17;;
12511;SDS011;6321;53.798;10.382;2023-05-02T02:13:54;29.13;;;18.57;;
12511;SDS011;6321;53.798;10.382;2023-05-02T02:16:27;25.13;;;18.50;;
12511;SDS011;6321;53.798;10.382;2023-05-02T02:18:53;25.57;;;18.63;;
12511;SDS011;6321;53.798;10.382;2023-05-02T02:21:21;24.10;;;17.03;;
12511;SDS011;6321;53.798;10.382;2023-05-02T02:23:48;19.90;;;14.50;;
12511;SDS011;6321;53.798;10.382;2023-05-02T02:26:16;22.63;;;16.17;;
12511;SDS011;6321;53.798;10.382;2023-05-02T02:28:43;22.60;;;14.10;;
12511;SDS011;6321;53.798;10.382;2023-05-02T02:31:09;18.30;;;12.03;;
12511;SDS011;6321;53.798;10.382;2023-05-02T02:33:35;15.37;;;11.23;;
12511;SDS011;6321;53.798;10.382;2023-05-02T02:36:11;14.87;;;10.07;;
12511;SDS011;6321;53.798;10.382;2023-05-02T02:38:46;15.73;;;9.87;;
12511;SDS011;6321;53.798;10.382;2023-05-02T02:41:17;7.47;;;6.07;;
12511;SDS011;6321;53.798;10.382;2023-05-02T02:43:52;5.53;;;4.10;;
12511;SDS011;6321;53.798;10.382;2023-05-02T02:46:32;5.60;;;3.60;;
12511;SDS011;6321;53.798;10.382;2023-05-02T02:51:31;5.07;;;3.83;;
12511;SDS011;6321;53.798;10.382;2023-05-02T02:56:41;5.10;;;3.93;;
12511;SDS011;6321;53.798;10.382;2023-05-02T02:59:11;7.80;;;5.00;;
12511;SDS011;6321;53.798;10.382;2023-05-02T03:01:39;7.67;;;4.53;;
12511;SDS011;6321;53.798;10.382;2023-05-02T03:04:07;18.63;;;5.20;;
12511;SDS011;6321;53.798;10.382;2023-05-02T03:06:34;10.07;;;4.87;;
12511;SDS011;6321;53.798;10.382;2023-05-02T03:09:00;14.90;;;5.60;;
12511;SDS011;6321;53.798;10.382;2023-05-02T03:11:26;9.93;;;4.50;;
12511;SDS011;6321;53.798;10.382;2023-05-02T03:13:52;9.63;;;4.73;;
12511;SDS011;6321;53.798;10.382;2023-05-02T03:16:24;14.40;;;5.73;;
12511;SDS011;6321;53.798;10.382;2023-05-02T03:18:54;14.87;;;4.97;;
12511;SDS011;6321;53.798;10.382;2023-05-02T03:21:20;14.07;;;5.00;;
12511;SDS011;6321;53.798;10.382;2023-05-02T03:23:46;22.43;;;6.13;;
12511;SDS011;6321;53.798;10.382;2023-05-02T03:26:12;14.97;;;4.90;;
12511;SDS011;6321;53.798;10.382;2023-05-02T03:28:38;18.70;;;5.23;;
12511;SDS011;6321;53.798;10.382;2023-05-02T03:31:04;8.43;;;4.27;;
12511;SDS011;6321;53.798;10.382;2023-05-02T03:33:30;25.83;;;6.00;;
12511;SDS011;6321;53.798;10.382;2023-05-02T03:35:56;16.47;;;5.83;;
12511;SDS011;6321;53.798;10.382;2023-05-02T03:38:22;19.67;;;6.13;;
12511;SDS011;6321;53.798;10.382;2023-05-02T03:40:48;19.60;;;4.90;;
12511;SDS011;6321;53.798;10.382;2023-05-02T03:43:14;13.90;;;5.80;;
12511;SDS011;6321;53.798;10.382;2023-05-02T03:45:40;17.57;;;5.57;;
12511;SDS011;6321;53.798;10.382;2023-05-02T03:48:06;18.53;;;5.33;;
12511;SDS011;6321;53.798;10.382;2023-05-02T03:50:32;23.07;;;6.50;;
12511;SDS011;6321;53.798;10.382;2023-05-02T03:52:58;16.97;;;5.67;;
12511;SDS011;6321;53.798;10.382;2023-05-02T03:55:24;18.10;;;6.13;;
12511;SDS011;6321;53.798;10.382;2023-05-02T03:57:52;21.77;;;6.63;;
12511;SDS011;6321;53.798;10.382;2023-05-02T04:00:18;9.57;;;4.30;;
12511;SDS011;6321;53.798;10.382;2023-05-02T04:02:44;11.73;;;4.93;;
12511;SDS011;6321;53.798;10.382;2023-05-02T04:05:10;20.67;;;5.73;;
12511;SDS011;6321;53.798;10.382;2023-05-02T04:07:36;14.17;;;4.87;;
12511;SDS011;6321;53.798;10.382;2023-05-02T04:10:02;18.20;;;6.00;;
12511;SDS011;6321;53.798;10.382;2023-05-02T04:12:28;14.97;;;5.10;;
12511;SDS011;6321;53.798;10.382;2023-05-02T04:14:54;14.77;;;5.20;;
12511;SDS011;6321;53.798;10.382;2023-05-02T04:17:20;17.90;;;6.07;;
12511;SDS011;6321;53.798;10.382;2023-05-02T04:19:46;13.57;;;4.17;;
12511;SDS011;6321;53.798;10.382;2023-05-02T04:22:12;19.47;;;4.93;;
12511;SDS011;6321;53.798;10.382;2023-05-02T04:24:38;15.13;;;4.53;;
12511;SDS011;6321;53.798;10.382;2023-05-02T04:27:04;17.00;;;4.43;;
12511;SDS011;6321;53.798;10.382;2023-05-02T04:29:29;11.67;;;3.73;;
12511;SDS011;6321;53.798;10.382;2023-05-02T04:31:55;12.23;;;4.33;;
12511;SDS011;6321;53.798;10.382;2023-05-02T04:34:21;16.47;;;4.37;;
12511;SDS011;6321;53.798;10.382;2023-05-02T04:36:47;13.10;;;4.03;;
12511;SDS011;6321;53.798;10.382;2023-05-02T04:39:13;20.33;;;5.30;;
12511;SDS011;6321;53.798;10.382;2023-05-02T04:41:39;17.93;;;4.77;;
12511;SDS011;6321;53.798;10.382;2023-05-02T04:44:07;15.90;;;4.50;;
12511;SDS011;6321;53.798;10.382;2023-05-02T04:46:32;13.43;;;4.53;;
12511;SDS011;6321;53.798;10.382;2023-05-02T04:48:58;13.47;;;4.30;;
12511;SDS011;6321;53.798;10.382;2023-05-02T04:51:24;16.73;;;3.80;;
12511;SDS011;6321;53.798;10.382;2023-05-02T04:53:51;12.83;;;4.37;;
12511;SDS011;6321;53.798;10.382;2023-05-02T04:56:17;14.40;;;3.57;;
12511;SDS011;6321;53.798;10.382;2023-05-02T04:58:43;11.37;;;3.33;;
12511;SDS011;6321;53.798;10.382;2023-05-02T05:01:09;10.67;;;4.03;;
12511;SDS011;6321;53.798;10.382;2023-05-02T05:03:35;16.83;;;3.90;;
12511;SDS011;6321;53.798;10.382;2023-05-02T05:06:01;13.33;;;2.87;;
12511;SDS011;6321;53.798;10.382;2023-05-02T05:08:27;4.23;;;2.77;;
12511;SDS011;6321;53.798;10.382;2023-05-02T05:10:53;11.17;;;3.70;;
12511;SDS011;6321;53.798;10.382;2023-05-02T05:13:19;12.33;;;3.97;;
12511;SDS011;6321;53.798;10.382;2023-05-02T05:15:46;9.33;;;3.30;;
12511;SDS011;6321;53.798;10.382;2023-05-02T05:18:12;11.77;;;3.77;;
12511;SDS011;6321;53.798;10.382;2023-05-02T05:20:38;11.73;;;3.27;;
12511;SDS011;6321;53.798;10.382;2023-05-02T05:23:03;8.33;;;3.53;;
12511;SDS011;6321;53.798;10.382;2023-05-02T05:25:30;16.17;;;4.03;;
12511;SDS011;6321;53.798;10.382;2023-05-02T05:27:58;9.57;;;3.40;;
12511;SDS011;6321;53.798;10.382;2023-05-02T05:30:24;12.77;;;3.23;;
12511;SDS011;6321;53.798;10.382;2023-05-02T05:32:50;10.63;;;3.70;;
12511;SDS011;6321;53.798;10.382;2023-05-02T05:35:17;7.43;;;3.03;;
12511;SDS011;6321;53.798;10.382;2023-05-02T05:37:43;8.63;;;3.60;;
12511;SDS011;6321;53.798;10.382;2023-05-02T05:40:09;7.50;;;3.73;;
12511;SDS011;6321;53.798;10.382;2023-05-02T05:42:34;10.57;;;3.80;;
12511;SDS011;6321;53.798;10.382;2023-05-02T05:45:00;14.27;;;4.07;;
12511;SDS011;6321;53.798;10.382;2023-05-02T05:47:26;14.60;;;4.17;;
12511;SDS011;6321;53.798;10.382;2023-05-02T05:49:53;13.27;;;3.90;;
12511;SDS011;6321;53.798;10.382;2023-05-02T05:52:19;9.37;;;3.50;;
12511;SDS011;6321;53.798;10.382;2023-05-02T05:54:45;9.10;;;3.77;;
12511;SDS011;6321;53.798;10.382;2023-05-02T05:57:11;15.03;;;4.03;;
12511;SDS011;6321;53.798;10.382;2023-05-02T05:59:37;9.10;;;3.33;;
12511;SDS011;6321;53.798;10.382;2023-05-02T06:02:03;10.30;;;3.57;;
12511;SDS011;6321;53.798;10.382;2023-05-02T06:04:29;9.80;;;3.77;;
12511;SDS011;6321;53.798;10.382;2023-05-02T06:06:55;10.87;;;4.23;;
12511;SDS011;6321;53.798;10.382;2023-05-02T06:09:21;10.10;;;4.17;;
12511;SDS011;6321;53.798;10.382;2023-05-02T06:11:47;7.63;;;3.00;;
12511;SDS011;6321;53.798;10.382;2023-05-02T06:14:13;7.87;;;3.50;;
12511;SDS011;6321;53.798;10.382;2023-05-02T06:16:39;11.17;;;3.17;;
12511;SDS011;6321;53.798;10.382;2023-05-02T06:19:05;16.17;;;3.43;;
12511;SDS011;6321;53.798;10.382;2023-05-02T06:21:31;8.60;;;2.90;;
12511;SDS011;6321;53.798;10.382;2023-05-02T06:23:57;10.90;;;2.80;;
12511;SDS011;6321;53.798;10.382;2023-05-02T06:26:23;12.17;;;3.50;;
12511;SDS011;6321;53.798;10.382;2023-05-02T06:28:49;8.17;;;3.07;;
12511;SDS011;6321;53.798;10.382;2023-05-02T06:31:15;8.17;;;2.60;;
12511;SDS011;6321;53.798;10.382;2023-05-02T06:33:41;9.97;;;3.17;;
12511;SDS011;6321;53.798;10.382;2023-05-02T06:36:07;4.90;;;2.70;;
12511;SDS011;6321;53.798;10.382;2023-05-02T06:38:33;5.27;;;2.70;;
12511;SDS011;6321;53.798;10.382;2023-05-02T06:40:59;13.03;;;3.90;;
12511;SDS011;6321;53.798;10.382;2023-05-02T06:43:25;9.70;;;2.90;;
12511;SDS011;6321;53.798;10.382;2023-05-02T06:45:51;4.83;;;2.40;;
12511;SDS011;6321;53.798;10.382;2023-05-02T06:48:18;10.33;;;3.47;;
12511;SDS011;6321;53.798;10.382;2023-05-02T06:50:45;7.93;;;2.97;;
12511;SDS011;6321;53.798;10.382;2023-05-02T06:53:11;7.13;;;2.60;;
12511;SDS011;6321;53.798;10.382;2023-05-02T06:55:37;5.27;;;2.47;;
12511;SDS011;6321;53.798;10.382;2023-05-02T06:58:03;7.67;;;3.10;;
12511;SDS011;6321;53.798;10.382;2023-05-02T07:00:29;8.03;;;2.90;;
12511;SDS011;6321;53.798;10.382;2023-05-02T07:02:55;6.53;;;2.57;;
12511;SDS011;6321;53.798;10.382;2023-05-02T07:05:21;9.67;;;2.63;;
12511;SDS011;6321;53.798;10.382;2023-05-02T07:07:47;10.00;;;3.07;;
12511;SDS011;6321;53.798;10.382;2023-05-02T07:10:13;4.13;;;2.40;;
12511;SDS011;6321;53.798;10.382;2023-05-02T07:12:39;9.67;;;2.60;;
12511;SDS011;6321;53.798;10.382;2023-05-02T07:15:05;6.67;;;2.53;;
12511;SDS011;6321;53.798;10.382;2023-05-02T07:17:31;7.97;;;3.17;;
12511;SDS011;6321;53.798;10.382;2023-05-02T07:19:57;10.80;;;2.50;;
12511;SDS011;6321;53.798;10.382;2023-05-02T07:22:23;6.90;;;2.40;;
12511;SDS011;6321;53.798;10.382;2023-05-02T07:24:55;7.80;;;2.50;;
12511;SDS011;6321;53.798;10.382;2023-05-02T07:27:22;5.23;;;2.10;;
12511;SDS011;6321;53.798;10.382;2023-05-02T07:29:48;10.33;;;3.10;;
12511;SDS011;6321;53.798;10.382;2023-05-02T07:32:14;4.77;;;3.10;;
12511;SDS011;6321;53.798;10.382;2023-05-02T07:34:40;8.80;;;2.73;;
12511;SDS011;6321;53.798;10.382;2023-05-02T07:37:06;7.90;;;3.10;;
12511;SDS011;6321;53.798;10.382;2023-05-02T07:39:32;6.80;;;2.77;;
12511;SDS011;6321;53.798;10.382;2023-05-02T07:41:57;4.73;;;2.40;;
12511;SDS011;6321;53.798;10.382;2023-05-02T07:44:23;10.33;;;2.80;;
12511;SDS011;6321;53.798;10.382;2023-05-02T07:46:49;9.30;;;2.40;;
12511;SDS011;6321;53.798;10.382;2023-05-02T07:49:17;9.20;;;2.57;;
12511;SDS011;6321;53.798;10.382;2023-05-02T07:51:43;4.17;;;2.10;;
12511;SDS011;6321;53.798;10.382;2023-05-02T07:54:19;4.87;;;2.37;;
12511;SDS011;6321;53.798;10.382;2023-05-02T07:56:45;10.30;;;2.73;;
12511;SDS011;6321;53.798;10.382;2023-05-02T07:59:11;6.30;;;2.27;;
12511;SDS011;6321;53.798;10.382;2023-05-02T08:01:38;8.80;;;2.57;;
12511;SDS011;6321;53.798;10.382;2023-05-02T08:04:04;6.17;;;2.27;;
12511;SDS011;6321;53.798;10.382;2023-05-02T08:06:30;4.67;;;2.13;;
12511;SDS011;6321;53.798;10.382;2023-05-02T08:08:59;6.67;;;2.40;;
12511;SDS011;6321;53.798;10.382;2023-05-02T08:11:25;6.13;;;2.60;;
12511;SDS011;6321;53.798;10.382;2023-05-02T08:13:51;4.43;;;2.20;;
12511;SDS011;6321;53.798;10.382;2023-05-02T08:16:17;7.03;;;2.90;;
12511;SDS011;6321;53.798;10.382;2023-05-02T08:18:43;6.77;;;2.37;;
12511;SDS011;6321;53.798;10.382;2023-05-02T08:21:09;6.00;;;2.20;;
12511;SDS011;6321;53.798;10.382;2023-05-02T08:23:35;6.83;;;2.60;;
12511;SDS011;6321;53.798;10.382;2023-05-02T08:26:01;6.63;;;2.30;;
12511;SDS011;6321;53.798;10.382;2023-05-02T08:28:27;6.03;;;2.20;;
12511;SDS011;6321;53.798;10.382;2023-05-02T08:30:54;8.70;;;2.77;;
12511;SDS011;6321;53.798;10.382;2023-05-02T08:33:20;5.67;;;2.47;;
12511;SDS011;6321;53.798;10.382;2023-05-02T08:35:46;7.03;;;2.70;;
12511;SDS011;6321;53.798;10.382;2023-05-02T08:38:12;6.57;;;2.30;;
12511;SDS011;6321;53.798;10.382;2023-05-02T08:40:38;7.50;;;2.30;;
12511;SDS011;6321;53.798;10.382;2023-05-02T08:43:04;9.23;;;2.30;;
12511;SDS011;6321;53.798;10.382;2023-05-02T08:45:34;4.67;;;2.13;;
12511;SDS011;6321;53.798;10.382;2023-05-02T08:48:03;6.77;;;2.57;;
12511;SDS011;6321;53.798;10.382;2023-05-02T08:50:31;8.37;;;2.63;;
12511;SDS011;6321;53.798;10.382;2023-05-02T08:52:57;11.23;;;2.27;;
12511;SDS011;6321;53.798;10.382;2023-05-02T08:55:24;6.87;;;2.20;;
12511;SDS011;6321;53.798;10.382;2023-05-02T08:57:52;8.97;;;2.33;;
12511;SDS011;6321;53.798;10.382;2023-05-02T09:00:19;6.73;;;2.03;;
12511;SDS011;6321;53.798;10.382;2023-05-02T09:05:20;8.07;;;2.87;;
12511;SDS011;6321;53.798;10.382;2023-05-02T09:07:49;5.80;;;2.20;;
12511;SDS011;6321;53.798;10.382;2023-05-02T09:10:16;6.80;;;2.00;;
12511;SDS011;6321;53.798;10.382;2023-05-02T09:12:42;6.80;;;2.63;;
12511;SDS011;6321;53.798;10.382;2023-05-02T09:15:08;5.73;;;2.37;;
12511;SDS011;6321;53.798;10.382;2023-05-02T09:17:39;9.63;;;2.50;;
12511;SDS011;6321;53.798;10.382;2023-05-02T09:20:05;7.77;;;2.40;;
12511;SDS011;6321;53.798;10.382;2023-05-02T09:22:31;4.67;;;1.90;;
12511;SDS011;6321;53.798;10.382;2023-05-02T09:24:58;7.00;;;2.10;;
12511;SDS011;6321;53.798;10.382;2023-05-02T09:27:24;4.70;;;2.20;;
12511;SDS011;6321;53.798;10.382;2023-05-02T09:29:51;6.10;;;2.50;;
12511;SDS011;6321;53.798;10.382;2023-05-02T09:32:17;3.60;;;2.00;;
12511;SDS011;6321;53.798;10.382;2023-05-02T09:37:34;6.33;;;2.37;;
12511;SDS011;6321;53.798;10.382;2023-05-02T09:40:04;7.43;;;2.10;;
12511;SDS011;6321;53.798;10.382;2023-05-02T09:42:30;3.33;;;1.90;;
12511;SDS011;6321;53.798;10.382;2023-05-02T09:44:56;9.07;;;2.57;;
12511;SDS011;6321;53.798;10.382;2023-05-02T09:47:25;4.27;;;2.13;;
12511;SDS011;6321;53.798;10.382;2023-05-02T09:49:51;3.17;;;2.20;;
12511;SDS011;6321;53.798;10.382;2023-05-02T09:52:18;4.87;;;2.00;;
12511;SDS011;6321;53.798;10.382;2023-05-02T09:54:47;10.37;;;2.50;;
12511;SDS011;6321;53.798;10.382;2023-05-02T09:57:17;5.43;;;2.30;;
12511;SDS011;6321;53.798;10.382;2023-05-02T09:59:55;3.77;;;1.73;;
12511;SDS011;6321;53.798;10.382;2023-05-02T10:02:21;5.67;;;2.57;;
12511;SDS011;6321;53.798;10.382;2023-05-02T10:04:48;2.80;;;1.73;;
12511;SDS011;6321;53.798;10.382;2023-05-02T10:07:15;3.97;;;2.27;;
12511;SDS011;6321;53.798;10.382;2023-05-02T10:09:42;4.23;;;1.63;;
12511;SDS011;6321;53.798;10.382;2023-05-02T10:12:09;3.60;;;1.90;;
12511;SDS011;6321;53.798;10.382;2023-05-02T10:14:39;2.63;;;1.87;;
12511;SDS011;6321;53.798;10.382;2023-05-02T10:17:12;4.70;;;1.90;;
12511;SDS011;6321;53.798;10.382;2023-05-02T10:19:49;1.40;;;1.30;;
12511;SDS011;6321;53.798;10.382;2023-05-02T10:22:17;4.07;;;1.60;;
12511;SDS011;6321;53.798;10.382;2023-05-02T10:24:44;2.80;;;1.70;;
12511;SDS011;6321;53.798;10.382;2023-05-02T10:27:11;2.17;;;1.70;;
12511;SDS011;6321;53.798;10.382;2023-05-02T10:29:38;4.00;;;1.40;;
12511;SDS011;6321;53.798;10.382;2023-05-02T10:32:05;5.97;;;1.80;;
12511;SDS011;6321;53.798;10.382;2023-05-02T10:34:31;3.00;;;1.67;;
12511;SDS011;6321;53.798;10.382;2023-05-02T10:36:58;3.80;;;2.20;;
12511;SDS011;6321;53.798;10.382;2023-05-02T10:39:27;3.93;;;2.33;;
12511;SDS011;6321;53.798;10.382;2023-05-02T10:41:54;4.37;;;1.90;;
12511;SDS011;6321;53.798;10.382;2023-05-02T10:44:38;6.60;;;2.43;;
12511;SDS011;6321;53.798;10.382;2023-05-02T10:47:17;5.83;;;2.27;;
12511;SDS011;6321;53.798;10.382;2023-05-02T10:49:58;4.77;;;2.30;;
12511;SDS011;6321;53.798;10.382;2023-05-02T10:52:28;3.93;;;2.33;;
12511;SDS011;6321;53.798;10.382;2023-05-02T10:55:13;7.87;;;2.63;;
12511;SDS011;6321;53.798;10.382;2023-05-02T11:00:27;7.77;;;2.40;;
12511;SDS011;6321;53.798;10.382;2023-05-02T11:02:54;8.90;;;2.33;;
12511;SDS011;6321;53.798;10.382;2023-05-02T11:05:23;4.20;;;2.30;;
12511;SDS011;6321;53.798;10.382;2023-05-02T11:07:49;4.17;;;1.80;;
12511;SDS011;6321;53.798;10.382;2023-05-02T11:10:35;3.27;;;2.07;;
12511;SDS011;6321;53.798;10.382;2023-05-02T11:13:01;4.40;;;2.10;;
12511;SDS011;6321;53.798;10.382;2023-05-02T11:18:00;4.33;;;2.20;;
12511;SDS011;6321;53.798;10.382;2023-05-02T11:20:26;5.33;;;2.20;;
12511;SDS011;6321;53.798;10.382;2023-05-02T11:22:53;8.30;;;2.30;;
12511;SDS011;6321;53.798;10.382;2023-05-02T11:25:35;3.80;;;1.87;;
12511;SDS011;6321;53.798;10.382;2023-05-02T11:28:03;5.87;;;2.03;;
12511;SDS011;6321;53.798;10.382;2023-05-02T11:30:40;2.73;;;2.00;;
12511;SDS011;6321;53.798;10.382;2023-05-02T11:35:33;4.73;;;2.17;;
12511;SDS011;6321;53.798;10.382;2023-05-02T11:38:03;4.20;;;2.17;;
12511;SDS011;6321;53.798;10.382;2023-05-02T11:40:29;6.07;;;2.23;;
12511;SDS011;6321;53.798;10.382;2023-05-02T11:42:56;5.87;;;2.03;;
12511;SDS011;6321;53.798;10.382;2023-05-02T11:45:35;2.83;;;1.87;;
12511;SDS011;6321;53.798;10.382;2023-05-02T11:48:05;5.70;;;2.17;;
12511;SDS011;6321;53.798;10.382;2023-05-02T11:50:32;4.80;;;2.17;;
12511;SDS011;6321;53.798;10.382;2023-05-02T11:52:58;3.63;;;2.10;;
12511;SDS011;6321;53.798;10.382;2023-05-02T11:55:24;8.00;;;2.53;;
12511;SDS011;6321;53.798;10.382;2023-05-02T11:57:50;5.17;;;2.00;;
12511;SDS011;6321;53.798;10.382;2023-05-02T12:00:16;5.83;;;2.20;;
12511;SDS011;6321;53.798;10.382;2023-05-02T12:02:43;5.40;;;2.13;;
12511;SDS011;6321;53.798;10.382;2023-05-02T12:05:10;3.67;;;2.10;;
12511;SDS011;6321;53.798;10.382;2023-05-02T12:10:02;2.37;;;1.60;;
12511;SDS011;6321;53.798;10.382;2023-05-02T12:12:28;4.70;;;1.97;;
12511;SDS011;6321;53.798;10.382;2023-05-02T12:14:54;3.53;;;1.80;;
12511;SDS011;6321;53.798;10.382;2023-05-02T12:17:20;6.93;;;1.83;;
12511;SDS011;6321;53.798;10.382;2023-05-02T12:19:46;3.37;;;1.87;;
12511;SDS011;6321;53.798;10.382;2023-05-02T12:22:13;3.80;;;1.87;;
12511;SDS011;6321;53.798;10.382;2023-05-02T12:24:39;5.33;;;2.40;;
12511;SDS011;6321;53.798;10.382;2023-05-02T12:27:12;4.43;;;2.20;;
12511;SDS011;6321;53.798;10.382;2023-05-02T12:29:39;5.50;;;2.30;;
12511;SDS011;6321;53.798;10.382;2023-05-02T12:32:05;4.53;;;2.00;;
12511;SDS011;6321;53.798;10.382;2023-05-02T12:34:31;3.67;;;2.10;;
12511;SDS011;6321;53.798;10.382;2023-05-02T12:36:57;4.10;;;1.63;;
12511;SDS011;6321;53.798;10.382;2023-05-02T12:39:35;4.00;;;2.27;;
12511;SDS011;6321;53.798;10.382;2023-05-02T12:42:10;5.03;;;2.03;;
12511;SDS011;6321;53.798;10.382;2023-05-02T12:44:37;4.13;;;2.07;;
12511;SDS011;6321;53.798;10.382;2023-05-02T12:47:04;2.43;;;2.07;;
12511;SDS011;6321;53.798;10.382;2023-05-02T12:49:31;5.07;;;2.00;;
12511;SDS011;6321;53.798;10.382;2023-05-02T12:51:57;4.27;;;1.80;;
12511;SDS011;6321;53.798;10.382;2023-05-02T12:54:24;4.97;;;2.10;;
12511;SDS011;6321;53.798;10.382;2023-05-02T12:56:50;5.30;;;2.40;;
12511;SDS011;6321;53.798;10.382;2023-05-02T12:59:29;4.07;;;2.10;;
12511;SDS011;6321;53.798;10.382;2023-05-02T13:01:55;3.97;;;2.27;;
12511;SDS011;6321;53.798;10.382;2023-05-02T13:04:32;3.53;;;2.13;;
12511;SDS011;6321;53.798;10.382;2023-05-02T13:06:58;5.87;;;2.10;;
12511;SDS011;6321;53.798;10.382;2023-05-02T13:09:25;6.27;;;2.20;;
12511;SDS011;6321;53.798;10.382;2023-05-02T13:11:51;4.40;;;2.50;;
12511;SDS011;6321;53.798;10.382;2023-05-02T13:14:18;6.33;;;2.20;;
12511;SDS011;6321;53.798;10.382;2023-05-02T13:16:44;5.67;;;2.27;;
12511;SDS011;6321;53.798;10.382;2023-05-02T13:19:10;3.73;;;2.10;;
12511;SDS011;6321;53.798;10.382;2023-05-02T13:21:35;3.20;;;2.00;;
12511;SDS011;6321;53.798;10.382;2023-05-02T13:24:02;9.53;;;2.20;;
12511;SDS011;6321;53.798;10.382;2023-05-02T13:26:28;5.60;;;2.67;;
12511;SDS011;6321;53.798;10.382;2023-05-02T13:28:54;4.43;;;2.10;;
12511;SDS011;6321;53.798;10.382;2023-05-02T13:31:20;5.60;;;2.20;;
12511;SDS011;6321;53.798;10.382;2023-05-02T13:33:46;3.63;;;2.20;;
12511;SDS011;6321;53.798;10.382;2023-05-02T13:36:12;4.33;;;2.10;;
12511;SDS011;6321;53.798;10.382;2023-05-02T13:38:38;6.40;;;2.10;;
12511;SDS011;6321;53.798;10.382;2023-05-02T13:41:04;7.13;;;2.50;;
12511;SDS011;6321;53.798;10.382;2023-05-02T13:43:30;4.93;;;2.23;;
12511;SDS011;6321;53.798;10.382;2023-05-02T13:45:56;4.83;;;2.00;;
12511;SDS011;6321;53.798;10.382;2023-05-02T13:48:22;4.97;;;2.20;;
12511;SDS011;6321;53.798;10.382;2023-05-02T13:50:47;6.57;;;2.40;;
12511;SDS011;6321;53.798;10.382;2023-05-02T13:53:14;3.47;;;2.20;;
12511;SDS011;6321;53.798;10.382;2023-05-02T13:55:40;5.00;;;2.20;;
12511;SDS011;6321;53.798;10.382;2023-05-02T13:58:06;5.37;;;2.40;;
12511;SDS011;6321;53.798;10.382;2023-05-02T14:00:32;3.97;;;2.03;;
12511;SDS011;6321;53.798;10.382;2023-05-02T14:02:58;3.40;;;2.10;;
12511;SDS011;6321;53.798;10.382;2023-05-02T14:05:24;5.27;;;2.63;;
12511;SDS011;6321;53.798;10.382;2023-05-02T14:07:50;5.50;;;3.03;;
12511;SDS011;6321;53.798;10.382;2023-05-02T14:10:16;7.00;;;2.47;;
12511;SDS011;6321;53.798;10.382;2023-05-02T14:12:42;5.90;;;2.30;;
12511;SDS011;6321;53.798;10.382;2023-05-02T14:15:08;4.30;;;2.50;;
12511;SDS011;6321;53.798;10.382;2023-05-02T14:17:34;5.53;;;2.60;;
12511;SDS011;6321;53.798;10.382;2023-05-02T14:20:00;3.57;;;2.27;;
12511;SDS011;6321;53.798;10.382;2023-05-02T14:22:26;8.53;;;2.33;;
12511;SDS011;6321;53.798;10.382;2023-05-02T14:24:52;4.57;;;2.30;;
12511;SDS011;6321;53.798;10.382;2023-05-02T14:27:18;6.87;;;2.57;;
12511;SDS011;6321;53.798;10.382;2023-05-02T14:29:44;5.57;;;2.07;;
12511;SDS011;6321;53.798;10.382;2023-05-02T14:32:10;3.83;;;2.07;;
12511;SDS011;6321;53.798;10.382;2023-05-02T14:34:36;7.87;;;2.93;;
12511;SDS011;6321;53.798;10.382;2023-05-02T14:37:02;4.00;;;2.30;;
12511;SDS011;6321;53.798;10.382;2023-05-02T14:39:28;5.13;;;2.60;;
12511;SDS011;6321;53.798;10.382;2023-05-02T14:41:54;5.87;;;2.43;;
12511;SDS011;6321;53.798;10.382;2023-05-02T14:44:20;3.93;;;2.33;;
12511;SDS011;6321;53.798;10.382;2023-05-02T14:46:46;5.47;;;2.07;;
12511;SDS011;6321;53.798;10.382;2023-05-02T14:49:12;5.37;;;2.20;;
12511;SDS011;6321;53.798;10.382;2023-05-02T14:51:38;6.47;;;2.40;;
12511;SDS011;6321;53.798;10.382;2023-05-02T14:54:04;6.93;;;1.97;;
12511;SDS011;6321;53.798;10.382;2023-05-02T14:56:31;5.47;;;2.30;;
12511;SDS011;6321;53.798;10.382;2023-05-02T14:58:57;8.53;;;2.10;;
12511;SDS011;6321;53.798;10.382;2023-05-02T15:01:23;5.37;;;1.87;;
12511;SDS011;6321;53.798;10.382;2023-05-02T15:03:49;6.47;;;1.90;;
12511;SDS011;6321;53.798;10.382;2023-05-02T15:06:16;6.23;;;1.97;;